Aviation Digital Data Service (ADDS)

Output produced by TAFs form (2221 UTC 24 June 2018)
found at http://www.aviationweather.gov/adds/tafs/
 
KCHA 242205Z VRB05KT 10SM FEW010 SCT030 BKN050 BKN150 BKN250 23/19 A3000
KCHA 241732Z 2418/2518 24009KT P6SM VCTS SCT040CB BKN150 
     TEMPO 2418/2421 TSRA BKN035CB 
     FM250100 VRB03KT P6SM SCT060 BKN250 
     FM251400 23007KT P6SM VCTS SCT030CB BKN120